WetterOnline ( https://www.wetteronline.de )

Wetter aktuell Algermissen

Aktuelles Wetter: Alfeld (148m)

6-stündlich | Neueste Meldungen
Ortszeit Temperatur Wetter
So, 15.09. 20:00 20.7° C bewölkt
So, 15.09. 14:00 22.7° C leicht bewölkt
So, 15.09. 8:00 8.7° C wolkig
So, 15.09. 2:00 9.1° C wolkig
Sa, 14.09. 20:00 13.2° C wolkenlos
Sa, 14.09. 14:00 18.0° C wolkenlos
Sa, 14.09. 8:00 5.2° C wolkenlos
Sa, 14.09. 2:00 7.6° C leicht bewölkt
Ortszeit Temperatur Wetter
So, 15.09. 23:30 15.5° C bedeckt
So, 15.09. 23:20 15.5° C bedeckt
So, 15.09. 23:10 15.5° C bedeckt
So, 15.09. 23:00 15.9° C bedeckt
So, 15.09. 22:50 15.9° C bedeckt
So, 15.09. 22:40 16.0° C bedeckt
So, 15.09. 22:30 16.3° C bedeckt
So, 15.09. 22:00 16.6° C bedeckt
So, 15.09. 21:30 18.7° C bedeckt
So, 15.09. 21:00 20.1° C bedeckt
So, 15.09. 20:30 19.8° C bedeckt
Ortszeit Relative Feuchte Sichtweite
So, 15.09. 20:00 36% >70 km
So, 15.09. 14:00 28% >70 km
So, 15.09. 8:00 81% 50 km
So, 15.09. 2:00 80% 55 km
Sa, 14.09. 20:00 66% 55 km
Sa, 14.09. 14:00 43% 50 km
Sa, 14.09. 8:00 96% 20 km
Sa, 14.09. 2:00 92% 40 km
Ortszeit Relative Feuchte Sichtweite
So, 15.09. 23:30 86% 50 km
So, 15.09. 23:20 86% -
So, 15.09. 23:10 85% -
So, 15.09. 23:00 85% 60 km
So, 15.09. 22:50 85% -
So, 15.09. 22:40 86% -
So, 15.09. 22:30 85% 45 km
So, 15.09. 22:00 84% 50 km
So, 15.09. 21:30 71% 60 km
So, 15.09. 21:00 50% >70 km
So, 15.09. 20:30 41% >70 km
Ortszeit Niederschlagsmenge Niederschlagsart
So, 15.09. 20:00 0.0 l/m2 in 12 Std. -
So, 15.09. 14:00 0.0 l/m2 in 6 Std. -
So, 15.09. 8:00 0.0 l/m2 in 12 Std. -
So, 15.09. 2:00 0.0 l/m2 in 6 Std. -
Sa, 14.09. 20:00 0.0 l/m2 in 12 Std. -
Sa, 14.09. 14:00 0.0 l/m2 in 6 Std. -
Sa, 14.09. 8:00 0.0 l/m2 in 12 Std. -
Sa, 14.09. 2:00 0.0 l/m2 in 6 Std. -
Ortszeit Niederschlagsmenge Niederschlagsart
So, 15.09. 23:30 0.0 l/m2 in 1 Std. -
So, 15.09. 23:20 keine Meldung -
So, 15.09. 23:10 keine Meldung -
So, 15.09. 23:00 0.0 l/m2 in 1 Std. -
So, 15.09. 22:50 keine Meldung -
So, 15.09. 22:40 keine Meldung -
So, 15.09. 22:30 0.0 l/m2 in 1 Std. -
So, 15.09. 22:00 0.0 l/m2 in 1 Std. -
So, 15.09. 21:30 0.0 l/m2 in 1 Std. -
So, 15.09. 21:00 0.0 l/m2 in 1 Std. -
So, 15.09. 20:30 0.0 l/m2 in 1 Std. -
Ortszeit Stärke Spitze Richtung
km/h Bft. km/h Grad Sektor
So, 15.09. 20:00 9 2 37 290° W
So, 15.09. 14:00 18 3 43 240° SW
So, 15.09. 8:00 9 2 17 150° SO
So, 15.09. 2:00 11 2 14 150° SO
Sa, 14.09. 20:00 4 1 14 210° SW
Sa, 14.09. 14:00 6 1 20 200° S
Sa, 14.09. 8:00 4 1 7 140° SO
Sa, 14.09. 2:00 0 0 14 - -
Ortszeit Stärke Spitze Richtung
km/h Bft. km/h Grad Sektor
So, 15.09. 23:30 13 3 26 330° NW
So, 15.09. 23:20 13 3 - 330° NW
So, 15.09. 23:10 17 3 - 320° NW
So, 15.09. 23:00 13 3 28 330° NW
So, 15.09. 22:50 13 3 - 330° NW
So, 15.09. 22:40 15 3 - 330° NW
So, 15.09. 22:30 17 3 28 340° N
So, 15.09. 22:00 20 4 33 340° N
So, 15.09. 21:30 14 3 25 320° NW
So, 15.09. 21:00 13 3 20 290° W
So, 15.09. 20:30 7 2 14 270° W
Ortszeit Untergrenze Bedeckung Gattung
total tief tief mittel hoch
So, 15.09. 20:00 1500 m 7/8 7/8 - - -
So, 15.09. 14:00 7500 m 7/8 0/8 - - -
So, 15.09. 8:00 9000 m 8/8 0/8 - - -
So, 15.09. 2:00 10500 m 8/8 0/8 - - -
Sa, 14.09. 20:00 10500 m 0/8 0/8 - - -
Sa, 14.09. 14:00 - 0/8 0/8 - - -
Sa, 14.09. 8:00 - 0/8 0/8 - - -
Sa, 14.09. 2:00 9000 m 6/8 0/8 - - -
Ortszeit Bedeckungsgrad in Achtel und Wolkenuntergrenze
So, 15.09. 23:30 8(360m)
So, 15.09. 23:20 8(360m)
So, 15.09. 23:10 8(360m)
So, 15.09. 23:00 8(360m)
So, 15.09. 22:50 8(360m)
So, 15.09. 22:40 7(360m) 8(480m)
So, 15.09. 22:30 6(420m) 8(1410m)
So, 15.09. 22:00 1(540m) 8(1470m)
So, 15.09. 21:30 8(1500m) 8(7800m)
So, 15.09. 21:00 8(1500m) 8(4500m)
So, 15.09. 20:30 8(1500m)
Ortszeit Luftdruck NN (hPa) Tendenz (hPa in 3 Std.)
So, 15.09. 20:00 1020 + 0,1
So, 15.09. 14:00 1021 - 1,3
So, 15.09. 8:00 1024 - 0,5
So, 15.09. 2:00 1027 - 2,4
Sa, 14.09. 20:00 1031 - 0,9
Sa, 14.09. 14:00 1034 - 1,8
Sa, 14.09. 8:00 1036 + 0,4
Sa, 14.09. 2:00 1036 + 0,3
Ortszeit Luftdruck NN (hPa) Tendenz (hPa in 3 Std.)
So, 15.09. 23:30 1021 + 0,9
So, 15.09. 23:20 1021 keine Meldung
So, 15.09. 23:10 1021 keine Meldung
So, 15.09. 23:00 1021 + 1,1
So, 15.09. 22:50 1021 keine Meldung
So, 15.09. 22:40 1021 keine Meldung
So, 15.09. 22:30 1021 + 1,2
So, 15.09. 22:00 1021 + 1,1
So, 15.09. 21:30 1020 + 0,7
So, 15.09. 21:00 1020 + 0,4
So, 15.09. 20:30 1020 + 0,2
Ortszeit Schneehöhe (cm)
So, 15.09. 20:00 -
So, 15.09. 14:00 -
So, 15.09. 8:00 -
So, 15.09. 2:00 -
Sa, 14.09. 20:00 -
Sa, 14.09. 14:00 -
Sa, 14.09. 8:00 -
Sa, 14.09. 2:00 -
Ortszeit Schneehöhe (cm)
So, 15.09. 23:30 -
So, 15.09. 23:20 -
So, 15.09. 23:10 -
So, 15.09. 23:00 -
So, 15.09. 22:50 -
So, 15.09. 22:40 -
So, 15.09. 22:30 -
So, 15.09. 22:00 -
So, 15.09. 21:30 -
So, 15.09. 21:00 -
So, 15.09. 20:30 -
Link zu dieser Seite / Seite empfehlen

Das Wetter in ...